| Date | Time | Temp. (oF) | Dew Point (oF) | Rel. Hum. (%) | Press. (in.) | Wind Dir. | Wind Speed (mph) | Hourly Rainfall (in.) |
|
|---|---|---|---|---|---|---|---|---|---|
| 1 | 09/04 | 00:00 | 71 | 64 | 80 | 29.90 | S | 0 | 0.00 |
| 2 | 09/03 | 23:00 | 71 | 63 | 76 | 29.89 | S | 0 | 0.00 |
| 3 | 09/03 | 22:00 | 74 | 63 | 69 | 29.88 | S | 0 | 0.00 |
| 4 | 09/03 | 21:00 | 76 | 62 | 63 | 29.86 | S | 0 | 0.00 |
| 5 | 09/03 | 20:00 | 81 | 62 | 53 | 29.84 | S | 0 | 0.00 |
| 6 | 09/03 | 19:00 | 85 | 61 | 45 | 29.83 | S | 0 | 0.00 |
| 7 | 09/03 | 18:00 | 88 | 61 | 41 | 29.83 | SSW | 1 | 0.00 |
| 8 | 09/03 | 17:00 | 89 | 62 | 42 | 29.83 | SE | 5 | 0.00 |
| 9 | 09/03 | 16:00 | 89 | 62 | 42 | 29.85 | NE | 0 | 0.00 |
| 10 | 09/03 | 15:00 | 88 | 61 | 42 | 29.87 | SW | 3 | 0.00 |
| 11 | 09/03 | 14:00 | 86 | 64 | 49 | 29.90 | ENE | 2 | 0.00 |
| 12 | 09/03 | 13:00 | 85 | 65 | 53 | 29.91 | WNW | 5 | 0.00 |
| 13 | 09/03 | 12:00 | 82 | 65 | 57 | 29.93 | N | 0 | 0.00 |
| 14 | 09/03 | 11:00 | 79 | 64 | 62 | 29.95 | NE | 4 | 0.00 |
| 15 | 09/03 | 10:00 | 74 | 65 | 76 | 29.96 | E | 0 | 0.00 |
| 16 | 09/03 | 09:00 | 68 | 65 | 92 | 29.96 | SSW | 0 | 0.00 |
| 17 | 09/03 | 08:00 | 61 | 60 | 100 | 29.97 | WSW | 0 | 0.00 |
| 18 | 09/03 | 07:00 | 60 | 59 | 99 | 29.96 | WSW | 0 | 0.00 |
| 19 | 09/03 | 06:00 | 60 | 59 | 98 | 29.95 | WSW | 0 | 0.00 |
| 20 | 09/03 | 05:00 | 61 | 60 | 98 | 29.95 | WSW | 0 | 0.00 |
| 21 | 09/03 | 04:00 | 62 | 61 | 97 | 29.95 | WSW | 0 | 0.00 |
| 22 | 09/03 | 03:00 | 63 | 61 | 95 | 29.95 | WSW | 0 | 0.00 |
| 23 | 09/03 | 02:00 | 64 | 61 | 92 | 29.95 | WSW | 0 | 0.00 |
| 24 | 09/03 | 01:00 | 65 | 61 | 88 | 29.96 | WSW | 0 | 0.00 |